sensor_id;sensor_type;location;lat;lon;timestamp;temperature;humidity
27900;DHT22;15243;50.726;7.080;2023-09-07T00:00:17;15.60;99.90
27900;DHT22;15243;50.726;7.080;2023-09-07T00:02:44;15.60;99.90
27900;DHT22;15243;50.726;7.080;2023-09-07T00:05:12;15.60;99.90
27900;DHT22;15243;50.726;7.080;2023-09-07T00:07:40;15.60;99.90
27900;DHT22;15243;50.726;7.080;2023-09-07T00:10:07;15.50;99.90
27900;DHT22;15243;50.726;7.080;2023-09-07T00:12:34;15.40;99.90
27900;DHT22;15243;50.726;7.080;2023-09-07T00:15:01;15.40;99.90
27900;DHT22;15243;50.726;7.080;2023-09-07T00:17:29;15.40;99.90
27900;DHT22;15243;50.726;7.080;2023-09-07T00:19:56;15.40;99.90
27900;DHT22;15243;50.726;7.080;2023-09-07T00:22:25;15.40;99.90
27900;DHT22;15243;50.726;7.080;2023-09-07T00:24:55;15.40;99.90
27900;DHT22;15243;50.726;7.080;2023-09-07T00:27:22;15.30;99.90
27900;DHT22;15243;50.726;7.080;2023-09-07T00:29:49;15.30;99.90
27900;DHT22;15243;50.726;7.080;2023-09-07T00:32:16;15.20;99.90
27900;DHT22;15243;50.726;7.080;2023-09-07T00:34:43;15.20;99.90
27900;DHT22;15243;50.726;7.080;2023-09-07T00:37:10;15.20;99.90
27900;DHT22;15243;50.726;7.080;2023-09-07T00:39:37;15.20;99.90
27900;DHT22;15243;50.726;7.080;2023-09-07T00:42:04;15.10;99.90
27900;DHT22;15243;50.726;7.080;2023-09-07T00:44:31;15.10;99.90
27900;DHT22;15243;50.726;7.080;2023-09-07T00:46:58;15.10;99.90
27900;DHT22;15243;50.726;7.080;2023-09-07T00:49:25;15.10;99.90
27900;DHT22;15243;50.726;7.080;2023-09-07T00:51:52;15.10;99.90
27900;DHT22;15243;50.726;7.080;2023-09-07T00:54:19;15.10;99.90
27900;DHT22;15243;50.726;7.080;2023-09-07T00:56:46;15.00;99.90
27900;DHT22;15243;50.726;7.080;2023-09-07T00:59:14;15.00;99.90
27900;DHT22;15243;50.726;7.080;2023-09-07T01:01:41;15.00;99.90
27900;DHT22;15243;50.726;7.080;2023-09-07T01:04:10;14.90;99.90
27900;DHT22;15243;50.726;7.080;2023-09-07T01:06:46;14.90;99.90
27900;DHT22;15243;50.726;7.080;2023-09-07T01:09:23;14.90;99.90
27900;DHT22;15243;50.726;7.080;2023-09-07T01:11:50;14.90;99.90
27900;DHT22;15243;50.726;7.080;2023-09-07T01:14:18;14.80;99.90
27900;DHT22;15243;50.726;7.080;2023-09-07T01:16:45;14.80;99.90
27900;DHT22;15243;50.726;7.080;2023-09-07T01:19:13;14.80;99.90
27900;DHT22;15243;50.726;7.080;2023-09-07T01:21:40;14.90;99.90
27900;DHT22;15243;50.726;7.080;2023-09-07T01:24:11;14.90;99.90
27900;DHT22;15243;50.726;7.080;2023-09-07T01:26:38;14.80;99.90
27900;DHT22;15243;50.726;7.080;2023-09-07T01:29:06;14.70;99.90
27900;DHT22;15243;50.726;7.080;2023-09-07T01:31:37;14.70;99.90
27900;DHT22;15243;50.726;7.080;2023-09-07T01:34:06;14.70;99.90
27900;DHT22;15243;50.726;7.080;2023-09-07T01:36:33;14.70;99.90
27900;DHT22;15243;50.726;7.080;2023-09-07T01:39:01;14.70;99.90
27900;DHT22;15243;50.726;7.080;2023-09-07T01:41:28;14.70;99.90
27900;DHT22;15243;50.726;7.080;2023-09-07T01:43:56;14.60;99.90
27900;DHT22;15243;50.726;7.080;2023-09-07T01:46:23;14.60;99.90
27900;DHT22;15243;50.726;7.080;2023-09-07T01:48:51;14.50;99.90
27900;DHT22;15243;50.726;7.080;2023-09-07T01:51:18;14.50;99.90
27900;DHT22;15243;50.726;7.080;2023-09-07T01:53:47;14.50;99.90
27900;DHT22;15243;50.726;7.080;2023-09-07T01:56:18;14.50;99.90
27900;DHT22;15243;50.726;7.080;2023-09-07T01:58:45;14.50;99.90
27900;DHT22;15243;50.726;7.080;2023-09-07T02:01:28;14.50;99.90
27900;DHT22;15243;50.726;7.080;2023-09-07T02:03:57;14.40;99.90
27900;DHT22;15243;50.726;7.080;2023-09-07T02:06:25;14.40;99.90
27900;DHT22;15243;50.726;7.080;2023-09-07T02:08:51;14.40;99.90
27900;DHT22;15243;50.726;7.080;2023-09-07T02:11:18;14.40;99.90
27900;DHT22;15243;50.726;7.080;2023-09-07T02:13:47;14.40;99.90
27900;DHT22;15243;50.726;7.080;2023-09-07T02:16:15;14.40;99.90
27900;DHT22;15243;50.726;7.080;2023-09-07T02:18:43;14.40;99.90
27900;DHT22;15243;50.726;7.080;2023-09-07T02:21:13;14.40;99.90
27900;DHT22;15243;50.726;7.080;2023-09-07T02:23:40;14.40;99.90
27900;DHT22;15243;50.726;7.080;2023-09-07T02:26:07;14.30;99.90
27900;DHT22;15243;50.726;7.080;2023-09-07T02:28:34;14.30;99.90
27900;DHT22;15243;50.726;7.080;2023-09-07T02:31:05;14.30;99.90
27900;DHT22;15243;50.726;7.080;2023-09-07T02:33:33;14.30;99.90
27900;DHT22;15243;50.726;7.080;2023-09-07T02:36:00;14.30;99.90
27900;DHT22;15243;50.726;7.080;2023-09-07T02:38:28;14.20;99.90
27900;DHT22;15243;50.726;7.080;2023-09-07T02:40:56;14.20;99.90
27900;DHT22;15243;50.726;7.080;2023-09-07T02:43:23;14.30;99.90
27900;DHT22;15243;50.726;7.080;2023-09-07T02:45:50;14.30;99.90
27900;DHT22;15243;50.726;7.080;2023-09-07T02:48:17;14.20;99.90
27900;DHT22;15243;50.726;7.080;2023-09-07T02:50:45;14.20;99.90
27900;DHT22;15243;50.726;7.080;2023-09-07T02:53:16;14.10;99.90
27900;DHT22;15243;50.726;7.080;2023-09-07T02:55:43;14.10;99.90
27900;DHT22;15243;50.726;7.080;2023-09-07T02:58:10;14.10;99.90
27900;DHT22;15243;50.726;7.080;2023-09-07T03:00:44;14.00;99.90
27900;DHT22;15243;50.726;7.080;2023-09-07T03:03:14;14.00;99.90
27900;DHT22;15243;50.726;7.080;2023-09-07T03:05:42;14.00;99.90
27900;DHT22;15243;50.726;7.080;2023-09-07T03:08:10;14.00;99.90
27900;DHT22;15243;50.726;7.080;2023-09-07T03:10:38;14.00;99.90
27900;DHT22;15243;50.726;7.080;2023-09-07T03:13:08;13.90;99.90
27900;DHT22;15243;50.726;7.080;2023-09-07T03:15:35;13.80;99.90
27900;DHT22;15243;50.726;7.080;2023-09-07T03:18:03;13.80;99.90
27900;DHT22;15243;50.726;7.080;2023-09-07T03:20:33;13.90;99.90
27900;DHT22;15243;50.726;7.080;2023-09-07T03:23:01;13.80;99.90
27900;DHT22;15243;50.726;7.080;2023-09-07T03:25:28;13.80;99.90
27900;DHT22;15243;50.726;7.080;2023-09-07T03:27:56;13.80;99.90
27900;DHT22;15243;50.726;7.080;2023-09-07T03:30:23;13.70;99.90
27900;DHT22;15243;50.726;7.080;2023-09-07T03:32:50;13.70;99.90
27900;DHT22;15243;50.726;7.080;2023-09-07T03:35:18;13.70;99.90
27900;DHT22;15243;50.726;7.080;2023-09-07T03:37:45;13.70;99.90
27900;DHT22;15243;50.726;7.080;2023-09-07T03:40:12;13.70;99.90
27900;DHT22;15243;50.726;7.080;2023-09-07T03:42:39;13.60;99.90
27900;DHT22;15243;50.726;7.080;2023-09-07T03:45:06;13.60;99.90
27900;DHT22;15243;50.726;7.080;2023-09-07T03:47:34;13.60;99.90
27900;DHT22;15243;50.726;7.080;2023-09-07T03:50:01;13.60;99.90
27900;DHT22;15243;50.726;7.080;2023-09-07T03:52:28;13.60;99.90
27900;DHT22;15243;50.726;7.080;2023-09-07T03:54:55;13.60;99.90
27900;DHT22;15243;50.726;7.080;2023-09-07T03:57:24;13.60;99.90
27900;DHT22;15243;50.726;7.080;2023-09-07T03:59:51;13.60;99.90
27900;DHT22;15243;50.726;7.080;2023-09-07T04:02:18;13.60;99.90
27900;DHT22;15243;50.726;7.080;2023-09-07T04:04:50;13.60;99.90
27900;DHT22;15243;50.726;7.080;2023-09-07T04:07:17;13.70;99.90
27900;DHT22;15243;50.726;7.080;2023-09-07T04:09:45;13.70;99.90
27900;DHT22;15243;50.726;7.080;2023-09-07T04:12:12;13.70;99.90
27900;DHT22;15243;50.726;7.080;2023-09-07T04:14:40;13.70;99.90
27900;DHT22;15243;50.726;7.080;2023-09-07T04:17:08;13.70;99.90
27900;DHT22;15243;50.726;7.080;2023-09-07T04:19:37;13.70;99.90
27900;DHT22;15243;50.726;7.080;2023-09-07T04:22:05;13.70;99.90
27900;DHT22;15243;50.726;7.080;2023-09-07T04:24:32;13.80;99.90
27900;DHT22;15243;50.726;7.080;2023-09-07T04:27:00;13.90;99.90
27900;DHT22;15243;50.726;7.080;2023-09-07T04:29:28;13.90;99.90
27900;DHT22;15243;50.726;7.080;2023-09-07T04:31:55;13.80;99.90
27900;DHT22;15243;50.726;7.080;2023-09-07T04:34:23;13.70;99.90
27900;DHT22;15243;50.726;7.080;2023-09-07T04:36:50;13.70;99.90
27900;DHT22;15243;50.726;7.080;2023-09-07T04:39:17;13.60;99.90
27900;DHT22;15243;50.726;7.080;2023-09-07T04:41:44;13.50;99.90
27900;DHT22;15243;50.726;7.080;2023-09-07T04:44:12;13.40;99.90
27900;DHT22;15243;50.726;7.080;2023-09-07T04:46:41;13.40;99.90
27900;DHT22;15243;50.726;7.080;2023-09-07T04:49:08;13.40;99.90
27900;DHT22;15243;50.726;7.080;2023-09-07T04:51:35;13.40;99.90
27900;DHT22;15243;50.726;7.080;2023-09-07T04:54:02;13.40;99.90
27900;DHT22;15243;50.726;7.080;2023-09-07T04:56:30;13.30;99.90
27900;DHT22;15243;50.726;7.080;2023-09-07T04:58:57;13.40;99.90
27900;DHT22;15243;50.726;7.080;2023-09-07T05:01:25;13.30;99.90
27900;DHT22;15243;50.726;7.080;2023-09-07T05:03:52;13.30;99.90
27900;DHT22;15243;50.726;7.080;2023-09-07T05:06:20;13.30;99.90
27900;DHT22;15243;50.726;7.080;2023-09-07T05:08:50;13.30;99.90
27900;DHT22;15243;50.726;7.080;2023-09-07T05:11:17;13.20;99.90
27900;DHT22;15243;50.726;7.080;2023-09-07T05:13:44;13.30;99.90
27900;DHT22;15243;50.726;7.080;2023-09-07T05:16:11;13.30;99.90
27900;DHT22;15243;50.726;7.080;2023-09-07T05:18:40;13.30;99.90
27900;DHT22;15243;50.726;7.080;2023-09-07T05:21:14;13.40;99.90
27900;DHT22;15243;50.726;7.080;2023-09-07T05:23:41;13.40;99.90
27900;DHT22;15243;50.726;7.080;2023-09-07T05:26:09;13.40;99.90
27900;DHT22;15243;50.726;7.080;2023-09-07T05:28:36;13.50;99.90
27900;DHT22;15243;50.726;7.080;2023-09-07T05:31:03;13.50;99.90
27900;DHT22;15243;50.726;7.080;2023-09-07T05:33:30;13.50;99.90
27900;DHT22;15243;50.726;7.080;2023-09-07T05:35:57;13.60;99.90
27900;DHT22;15243;50.726;7.080;2023-09-07T05:38:25;13.70;99.90
27900;DHT22;15243;50.726;7.080;2023-09-07T05:40:52;13.80;99.90
27900;DHT22;15243;50.726;7.080;2023-09-07T05:43:21;13.90;99.90
27900;DHT22;15243;50.726;7.080;2023-09-07T05:45:48;14.00;99.90
27900;DHT22;15243;50.726;7.080;2023-09-07T05:48:15;14.10;99.90
27900;DHT22;15243;50.726;7.080;2023-09-07T05:50:45;14.30;99.90
27900;DHT22;15243;50.726;7.080;2023-09-07T05:53:12;14.40;99.90
27900;DHT22;15243;50.726;7.080;2023-09-07T05:55:39;14.50;99.90
27900;DHT22;15243;50.726;7.080;2023-09-07T05:58:07;14.50;99.90
27900;DHT22;15243;50.726;7.080;2023-09-07T06:00:35;14.70;99.90
27900;DHT22;15243;50.726;7.080;2023-09-07T06:03:03;14.70;99.90
27900;DHT22;15243;50.726;7.080;2023-09-07T06:05:30;14.80;99.90
27900;DHT22;15243;50.726;7.080;2023-09-07T06:07:57;15.00;99.90
27900;DHT22;15243;50.726;7.080;2023-09-07T06:10:24;15.10;99.90
27900;DHT22;15243;50.726;7.080;2023-09-07T06:12:51;15.20;99.90
27900;DHT22;15243;50.726;7.080;2023-09-07T06:15:18;15.20;99.90
27900;DHT22;15243;50.726;7.080;2023-09-07T06:17:45;15.40;99.90
27900;DHT22;15243;50.726;7.080;2023-09-07T06:20:13;15.50;99.90
27900;DHT22;15243;50.726;7.080;2023-09-07T06:22:40;15.60;99.90
27900;DHT22;15243;50.726;7.080;2023-09-07T06:25:07;15.70;99.90
27900;DHT22;15243;50.726;7.080;2023-09-07T06:27:34;15.80;99.90
27900;DHT22;15243;50.726;7.080;2023-09-07T06:30:01;15.90;99.90
27900;DHT22;15243;50.726;7.080;2023-09-07T06:32:29;16.00;99.90
27900;DHT22;15243;50.726;7.080;2023-09-07T06:34:57;16.10;99.90
27900;DHT22;15243;50.726;7.080;2023-09-07T06:37:24;16.30;99.90
27900;DHT22;15243;50.726;7.080;2023-09-07T06:39:51;16.40;99.90
27900;DHT22;15243;50.726;7.080;2023-09-07T06:42:18;16.50;99.90
27900;DHT22;15243;50.726;7.080;2023-09-07T06:44:45;16.60;99.90
27900;DHT22;15243;50.726;7.080;2023-09-07T06:47:12;16.70;99.90
27900;DHT22;15243;50.726;7.080;2023-09-07T06:49:40;16.70;99.90
27900;DHT22;15243;50.726;7.080;2023-09-07T06:52:07;16.80;99.90
27900;DHT22;15243;50.726;7.080;2023-09-07T06:54:34;16.90;99.90
27900;DHT22;15243;50.726;7.080;2023-09-07T06:57:01;17.00;99.90
27900;DHT22;15243;50.726;7.080;2023-09-07T06:59:28;17.20;99.90
27900;DHT22;15243;50.726;7.080;2023-09-07T07:01:56;17.30;99.90
27900;DHT22;15243;50.726;7.080;2023-09-07T07:04:26;17.40;99.90
27900;DHT22;15243;50.726;7.080;2023-09-07T07:06:53;17.50;99.90
27900;DHT22;15243;50.726;7.080;2023-09-07T07:09:21;17.60;99.90
27900;DHT22;15243;50.726;7.080;2023-09-07T07:11:48;17.70;99.90
27900;DHT22;15243;50.726;7.080;2023-09-07T07:14:16;17.90;99.90
27900;DHT22;15243;50.726;7.080;2023-09-07T07:16:42;17.90;99.90
27900;DHT22;15243;50.726;7.080;2023-09-07T07:19:10;18.10;99.90
27900;DHT22;15243;50.726;7.080;2023-09-07T07:21:49;18.30;99.90
27900;DHT22;15243;50.726;7.080;2023-09-07T07:24:16;18.40;99.90
27900;DHT22;15243;50.726;7.080;2023-09-07T07:26:44;18.40;99.90
27900;DHT22;15243;50.726;7.080;2023-09-07T07:29:11;18.50;99.90
27900;DHT22;15243;50.726;7.080;2023-09-07T07:31:44;18.70;99.90
27900;DHT22;15243;50.726;7.080;2023-09-07T07:34:11;18.70;99.90
27900;DHT22;15243;50.726;7.080;2023-09-07T07:36:38;18.80;99.90
27900;DHT22;15243;50.726;7.080;2023-09-07T07:39:06;19.00;99.90
27900;DHT22;15243;50.726;7.080;2023-09-07T07:41:35;19.10;99.90
27900;DHT22;15243;50.726;7.080;2023-09-07T07:44:03;19.20;99.90
27900;DHT22;15243;50.726;7.080;2023-09-07T07:46:30;19.40;99.90
27900;DHT22;15243;50.726;7.080;2023-09-07T07:48:57;19.50;99.90
27900;DHT22;15243;50.726;7.080;2023-09-07T07:51:24;19.80;99.90
27900;DHT22;15243;50.726;7.080;2023-09-07T07:53:51;20.00;99.90
27900;DHT22;15243;50.726;7.080;2023-09-07T07:56:18;20.10;99.90
27900;DHT22;15243;50.726;7.080;2023-09-07T07:58:46;20.30;99.90
27900;DHT22;15243;50.726;7.080;2023-09-07T08:01:15;20.50;99.90
27900;DHT22;15243;50.726;7.080;2023-09-07T08:03:42;20.50;99.90
27900;DHT22;15243;50.726;7.080;2023-09-07T08:06:10;20.60;99.90
27900;DHT22;15243;50.726;7.080;2023-09-07T08:08:39;20.70;99.90
27900;DHT22;15243;50.726;7.080;2023-09-07T08:11:06;20.80;99.90
27900;DHT22;15243;50.726;7.080;2023-09-07T08:13:34;20.80;99.20
27900;DHT22;15243;50.726;7.080;2023-09-07T08:16:02;21.10;94.20
27900;DHT22;15243;50.726;7.080;2023-09-07T08:18:29;21.20;90.50
27900;DHT22;15243;50.726;7.080;2023-09-07T08:21:02;21.20;78.70
27900;DHT22;15243;50.726;7.080;2023-09-07T08:23:29;21.20;77.80
27900;DHT22;15243;50.726;7.080;2023-09-07T08:25:56;21.30;78.60
27900;DHT22;15243;50.726;7.080;2023-09-07T08:28:23;21.50;84.60
27900;DHT22;15243;50.726;7.080;2023-09-07T08:30:52;21.60;68.10
27900;DHT22;15243;50.726;7.080;2023-09-07T08:33:23;21.70;51.30
27900;DHT22;15243;50.726;7.080;2023-09-07T08:35:53;21.90;45.30
27900;DHT22;15243;50.726;7.080;2023-09-07T08:38:22;22.10;7.20
27900;DHT22;15243;50.726;7.080;2023-09-07T08:41:00;22.30;12.90
27900;DHT22;15243;50.726;7.080;2023-09-07T08:43:29;22.40;1.00
27900;DHT22;15243;50.726;7.080;2023-09-07T08:46:09;22.50;1.00
27900;DHT22;15243;50.726;7.080;2023-09-07T08:48:42;22.60;1.00
27900;DHT22;15243;50.726;7.080;2023-09-07T08:51:10;22.70;1.00
27900;DHT22;15243;50.726;7.080;2023-09-07T08:53:39;22.90;1.00
27900;DHT22;15243;50.726;7.080;2023-09-07T08:56:07;23.00;1.00
27900;DHT22;15243;50.726;7.080;2023-09-07T08:58:37;23.10;1.00
27900;DHT22;15243;50.726;7.080;2023-09-07T09:01:04;23.10;1.00
27900;DHT22;15243;50.726;7.080;2023-09-07T09:03:35;23.30;1.00
27900;DHT22;15243;50.726;7.080;2023-09-07T09:06:03;23.40;1.00
27900;DHT22;15243;50.726;7.080;2023-09-07T09:08:53;23.50;1.00
27900;DHT22;15243;50.726;7.080;2023-09-07T09:11:22;23.80;1.00
27900;DHT22;15243;50.726;7.080;2023-09-07T09:13:51;23.80;1.00
27900;DHT22;15243;50.726;7.080;2023-09-07T09:16:19;24.00;1.00
27900;DHT22;15243;50.726;7.080;2023-09-07T09:18:55;24.00;1.00
27900;DHT22;15243;50.726;7.080;2023-09-07T09:21:24;24.30;1.00
27900;DHT22;15243;50.726;7.080;2023-09-07T09:23:52;24.40;1.00
27900;DHT22;15243;50.726;7.080;2023-09-07T09:26:20;24.60;1.00
27900;DHT22;15243;50.726;7.080;2023-09-07T09:28:47;24.40;1.00
27900;DHT22;15243;50.726;7.080;2023-09-07T09:31:14;24.40;1.00
27900;DHT22;15243;50.726;7.080;2023-09-07T09:33:42;24.50;1.00
27900;DHT22;15243;50.726;7.080;2023-09-07T09:36:09;24.70;1.00
27900;DHT22;15243;50.726;7.080;2023-09-07T09:38:36;25.00;1.00
27900;DHT22;15243;50.726;7.080;2023-09-07T09:41:05;24.80;1.00
27900;DHT22;15243;50.726;7.080;2023-09-07T09:43:32;24.90;1.00
27900;DHT22;15243;50.726;7.080;2023-09-07T09:46:00;25.00;1.00
27900;DHT22;15243;50.726;7.080;2023-09-07T09:48:28;25.20;1.00
27900;DHT22;15243;50.726;7.080;2023-09-07T09:50:56;25.40;1.00
27900;DHT22;15243;50.726;7.080;2023-09-07T09:53:23;25.60;1.00
27900;DHT22;15243;50.726;7.080;2023-09-07T09:55:53;25.70;1.00
27900;DHT22;15243;50.726;7.080;2023-09-07T09:58:21;25.70;1.00
27900;DHT22;15243;50.726;7.080;2023-09-07T10:00:50;25.90;1.00
27900;DHT22;15243;50.726;7.080;2023-09-07T10:03:28;25.80;1.00
27900;DHT22;15243;50.726;7.080;2023-09-07T10:06:10;25.70;1.00
27900;DHT22;15243;50.726;7.080;2023-09-07T10:08:37;25.90;1.00
27900;DHT22;15243;50.726;7.080;2023-09-07T10:11:08;26.20;1.00
27900;DHT22;15243;50.726;7.080;2023-09-07T10:13:38;26.40;1.00
27900;DHT22;15243;50.726;7.080;2023-09-07T10:16:07;26.40;1.00
27900;DHT22;15243;50.726;7.080;2023-09-07T10:18:38;26.60;1.00
27900;DHT22;15243;50.726;7.080;2023-09-07T10:21:06;26.80;1.00
27900;DHT22;15243;50.726;7.080;2023-09-07T10:23:39;26.80;1.00
27900;DHT22;15243;50.726;7.080;2023-09-07T10:26:18;27.00;1.00
27900;DHT22;15243;50.726;7.080;2023-09-07T10:28:47;27.00;1.00
27900;DHT22;15243;50.726;7.080;2023-09-07T10:31:25;27.00;1.00
27900;DHT22;15243;50.726;7.080;2023-09-07T10:34:10;27.20;1.00
27900;DHT22;15243;50.726;7.080;2023-09-07T10:36:40;27.10;1.00
27900;DHT22;15243;50.726;7.080;2023-09-07T10:39:07;27.10;1.00
27900;DHT22;15243;50.726;7.080;2023-09-07T10:41:44;27.30;1.00
27900;DHT22;15243;50.726;7.080;2023-09-07T10:44:11;27.60;1.00
27900;DHT22;15243;50.726;7.080;2023-09-07T10:46:40;27.60;1.00
27900;DHT22;15243;50.726;7.080;2023-09-07T10:49:08;27.50;1.00
27900;DHT22;15243;50.726;7.080;2023-09-07T10:51:46;27.80;1.00
27900;DHT22;15243;50.726;7.080;2023-09-07T10:54:14;27.90;1.00
27900;DHT22;15243;50.726;7.080;2023-09-07T10:56:44;28.10;1.00
27900;DHT22;15243;50.726;7.080;2023-09-07T10:59:17;28.00;1.00
27900;DHT22;15243;50.726;7.080;2023-09-07T11:01:49;28.10;1.00
27900;DHT22;15243;50.726;7.080;2023-09-07T11:04:17;28.10;1.00
27900;DHT22;15243;50.726;7.080;2023-09-07T11:06:45;28.30;1.00
27900;DHT22;15243;50.726;7.080;2023-09-07T11:09:13;28.30;1.00
27900;DHT22;15243;50.726;7.080;2023-09-07T11:11:46;28.40;1.00
27900;DHT22;15243;50.726;7.080;2023-09-07T11:14:13;28.60;1.00
27900;DHT22;15243;50.726;7.080;2023-09-07T11:16:40;28.60;1.00
27900;DHT22;15243;50.726;7.080;2023-09-07T11:19:08;28.90;1.00
27900;DHT22;15243;50.726;7.080;2023-09-07T11:21:35;29.10;1.00
27900;DHT22;15243;50.726;7.080;2023-09-07T11:24:03;29.10;1.00
27900;DHT22;15243;50.726;7.080;2023-09-07T11:26:46;29.10;1.00
27900;DHT22;15243;50.726;7.080;2023-09-07T11:29:14;29.10;1.00
27900;DHT22;15243;50.726;7.080;2023-09-07T11:31:43;29.30;1.00
27900;DHT22;15243;50.726;7.080;2023-09-07T11:34:11;29.40;1.00
27900;DHT22;15243;50.726;7.080;2023-09-07T11:36:43;29.60;1.00
27900;DHT22;15243;50.726;7.080;2023-09-07T11:39:10;29.50;99.90
27900;DHT22;15243;50.726;7.080;2023-09-07T11:41:40;29.60;99.90
27900;DHT22;15243;50.726;7.080;2023-09-07T11:44:08;29.80;99.90
27900;DHT22;15243;50.726;7.080;2023-09-07T11:46:36;29.80;99.90
27900;DHT22;15243;50.726;7.080;2023-09-07T11:49:03;29.80;99.90
27900;DHT22;15243;50.726;7.080;2023-09-07T11:51:31;29.80;99.90
27900;DHT22;15243;50.726;7.080;2023-09-07T11:53:58;30.10;99.90
27900;DHT22;15243;50.726;7.080;2023-09-07T11:56:26;30.00;99.90
27900;DHT22;15243;50.726;7.080;2023-09-07T11:58:53;30.10;99.90
27900;DHT22;15243;50.726;7.080;2023-09-07T12:01:22;30.30;99.90
27900;DHT22;15243;50.726;7.080;2023-09-07T12:03:49;30.40;99.90
27900;DHT22;15243;50.726;7.080;2023-09-07T12:06:16;30.10;99.90
27900;DHT22;15243;50.726;7.080;2023-09-07T12:09:01;30.30;99.90
27900;DHT22;15243;50.726;7.080;2023-09-07T12:11:29;30.10;99.90
27900;DHT22;15243;50.726;7.080;2023-09-07T12:13:56;30.10;99.90
27900;DHT22;15243;50.726;7.080;2023-09-07T12:16:24;30.40;99.90
27900;DHT22;15243;50.726;7.080;2023-09-07T12:18:52;30.40;99.90
27900;DHT22;15243;50.726;7.080;2023-09-07T12:21:20;30.40;99.90
27900;DHT22;15243;50.726;7.080;2023-09-07T12:23:47;30.50;99.90
27900;DHT22;15243;50.726;7.080;2023-09-07T12:26:15;30.60;99.90
27900;DHT22;15243;50.726;7.080;2023-09-07T12:28:43;30.60;99.90
27900;DHT22;15243;50.726;7.080;2023-09-07T12:31:11;30.70;99.90
27900;DHT22;15243;50.726;7.080;2023-09-07T12:33:39;30.90;99.90
27900;DHT22;15243;50.726;7.080;2023-09-07T12:36:06;30.90;99.90
27900;DHT22;15243;50.726;7.080;2023-09-07T12:38:37;30.90;99.90
27900;DHT22;15243;50.726;7.080;2023-09-07T12:41:04;31.10;99.90
27900;DHT22;15243;50.726;7.080;2023-09-07T12:43:31;31.10;99.90
27900;DHT22;15243;50.726;7.080;2023-09-07T12:45:59;31.20;99.90
27900;DHT22;15243;50.726;7.080;2023-09-07T12:48:26;31.10;99.90
27900;DHT22;15243;50.726;7.080;2023-09-07T12:50:54;31.30;99.90
27900;DHT22;15243;50.726;7.080;2023-09-07T12:53:21;31.20;99.90
27900;DHT22;15243;50.726;7.080;2023-09-07T12:55:53;31.50;99.90
27900;DHT22;15243;50.726;7.080;2023-09-07T12:58:20;31.60;99.90
27900;DHT22;15243;50.726;7.080;2023-09-07T13:00:47;31.90;99.90
27900;DHT22;15243;50.726;7.080;2023-09-07T13:03:15;32.30;99.90
27900;DHT22;15243;50.726;7.080;2023-09-07T13:05:43;32.30;99.90
27900;DHT22;15243;50.726;7.080;2023-09-07T13:08:10;32.70;99.90
27900;DHT22;15243;50.726;7.080;2023-09-07T13:10:37;32.50;99.90
27900;DHT22;15243;50.726;7.080;2023-09-07T13:13:06;32.60;99.90
27900;DHT22;15243;50.726;7.080;2023-09-07T13:15:33;32.70;99.90
27900;DHT22;15243;50.726;7.080;2023-09-07T13:18:01;33.20;99.90
27900;DHT22;15243;50.726;7.080;2023-09-07T13:20:28;33.70;99.90
27900;DHT22;15243;50.726;7.080;2023-09-07T13:22:56;33.40;99.90
27900;DHT22;15243;50.726;7.080;2023-09-07T13:25:23;33.80;99.90
27900;DHT22;15243;50.726;7.080;2023-09-07T13:27:50;33.60;99.90
27900;DHT22;15243;50.726;7.080;2023-09-07T13:30:17;33.80;99.90
27900;DHT22;15243;50.726;7.080;2023-09-07T13:32:44;34.00;99.90
27900;DHT22;15243;50.726;7.080;2023-09-07T13:35:14;34.40;99.90
27900;DHT22;15243;50.726;7.080;2023-09-07T13:37:42;34.70;99.90
27900;DHT22;15243;50.726;7.080;2023-09-07T13:40:09;34.80;99.90
27900;DHT22;15243;50.726;7.080;2023-09-07T13:42:37;34.40;82.10
27900;DHT22;15243;50.726;7.080;2023-09-07T13:45:06;33.80;80.10
27900;DHT22;15243;50.726;7.080;2023-09-07T13:47:33;34.50;52.90
27900;DHT22;15243;50.726;7.080;2023-09-07T13:50:00;34.40;14.90
27900;DHT22;15243;50.726;7.080;2023-09-07T13:52:27;34.90;70.80
27900;DHT22;15243;50.726;7.080;2023-09-07T13:54:54;35.60;42.20
27900;DHT22;15243;50.726;7.080;2023-09-07T13:57:21;35.40;1.00
27900;DHT22;15243;50.726;7.080;2023-09-07T13:59:49;35.50;1.00
27900;DHT22;15243;50.726;7.080;2023-09-07T14:02:16;35.90;1.00
27900;DHT22;15243;50.726;7.080;2023-09-07T14:04:43;36.80;1.00
27900;DHT22;15243;50.726;7.080;2023-09-07T14:07:10;36.50;1.00
27900;DHT22;15243;50.726;7.080;2023-09-07T14:09:37;36.70;1.00
27900;DHT22;15243;50.726;7.080;2023-09-07T14:12:05;36.50;1.00
27900;DHT22;15243;50.726;7.080;2023-09-07T14:14:33;37.20;1.00
27900;DHT22;15243;50.726;7.080;2023-09-07T14:16:59;37.10;1.00
27900;DHT22;15243;50.726;7.080;2023-09-07T14:19:27;36.80;1.00
27900;DHT22;15243;50.726;7.080;2023-09-07T14:21:57;36.60;1.00
27900;DHT22;15243;50.726;7.080;2023-09-07T14:24:25;36.90;1.00
27900;DHT22;15243;50.726;7.080;2023-09-07T14:26:52;36.90;1.00
27900;DHT22;15243;50.726;7.080;2023-09-07T14:29:19;37.80;1.00
27900;DHT22;15243;50.726;7.080;2023-09-07T14:31:46;38.70;1.00
27900;DHT22;15243;50.726;7.080;2023-09-07T14:34:15;39.40;1.00
27900;DHT22;15243;50.726;7.080;2023-09-07T14:36:42;39.40;1.00
27900;DHT22;15243;50.726;7.080;2023-09-07T14:39:09;39.00;99.90
27900;DHT22;15243;50.726;7.080;2023-09-07T14:41:36;38.00;99.90
27900;DHT22;15243;50.726;7.080;2023-09-07T14:44:04;37.20;99.90
27900;DHT22;15243;50.726;7.080;2023-09-07T14:46:31;37.80;99.90
27900;DHT22;15243;50.726;7.080;2023-09-07T14:48:58;37.50;99.90
27900;DHT22;15243;50.726;7.080;2023-09-07T14:51:27;37.90;99.90
27900;DHT22;15243;50.726;7.080;2023-09-07T14:53:54;38.30;99.90
27900;DHT22;15243;50.726;7.080;2023-09-07T14:56:21;39.10;99.90
27900;DHT22;15243;50.726;7.080;2023-09-07T14:58:48;39.60;99.90
27900;DHT22;15243;50.726;7.080;2023-09-07T15:01:15;39.60;99.90
27900;DHT22;15243;50.726;7.080;2023-09-07T15:03:42;39.80;99.90
27900;DHT22;15243;50.726;7.080;2023-09-07T15:06:09;39.90;99.90
27900;DHT22;15243;50.726;7.080;2023-09-07T15:08:39;40.20;99.90
27900;DHT22;15243;50.726;7.080;2023-09-07T15:11:06;39.90;99.90
27900;DHT22;15243;50.726;7.080;2023-09-07T15:13:33;39.30;99.90
27900;DHT22;15243;50.726;7.080;2023-09-07T15:16:01;39.40;99.90
27900;DHT22;15243;50.726;7.080;2023-09-07T15:18:28;40.00;99.90
27900;DHT22;15243;50.726;7.080;2023-09-07T15:20:55;39.20;99.90
27900;DHT22;15243;50.726;7.080;2023-09-07T15:23:23;40.30;99.90
27900;DHT22;15243;50.726;7.080;2023-09-07T15:25:50;40.50;99.90
27900;DHT22;15243;50.726;7.080;2023-09-07T15:28:20;39.50;99.90
27900;DHT22;15243;50.726;7.080;2023-09-07T15:30:47;39.50;99.90
27900;DHT22;15243;50.726;7.080;2023-09-07T15:33:14;39.80;99.90
27900;DHT22;15243;50.726;7.080;2023-09-07T15:35:41;40.20;99.90
27900;DHT22;15243;50.726;7.080;2023-09-07T15:38:09;40.40;99.90
27900;DHT22;15243;50.726;7.080;2023-09-07T15:40:36;40.90;99.90